sensor_id;sensor_type;location;lat;lon;timestamp;P1;durP1;ratioP1;P2;durP2;ratioP2
4323;SDS011;2175;51.018;6.994;2023-07-22T00:10:33;13.50;;;8.63;;
4323;SDS011;2175;51.018;6.994;2023-07-22T00:16:39;14.40;;;8.63;;
4323;SDS011;2175;51.018;6.994;2023-07-22T00:23:41;12.53;;;9.80;;
4323;SDS011;2175;51.018;6.994;2023-07-22T00:32:59;16.97;;;9.27;;
4323;SDS011;2175;51.018;6.994;2023-07-22T00:36:27;18.13;;;10.07;;
4323;SDS011;2175;51.018;6.994;2023-07-22T00:38:54;15.17;;;10.20;;
4323;SDS011;2175;51.018;6.994;2023-07-22T00:41:19;14.20;;;10.50;;
4323;SDS011;2175;51.018;6.994;2023-07-22T00:43:45;12.83;;;9.80;;
4323;SDS011;2175;51.018;6.994;2023-07-22T00:46:10;14.47;;;11.03;;
4323;SDS011;2175;51.018;6.994;2023-07-22T00:48:36;29.20;;;11.27;;
4323;SDS011;2175;51.018;6.994;2023-07-22T00:51:03;14.30;;;9.93;;
4323;SDS011;2175;51.018;6.994;2023-07-22T00:53:28;17.43;;;10.27;;
4323;SDS011;2175;51.018;6.994;2023-07-22T00:55:54;17.87;;;10.90;;
4323;SDS011;2175;51.018;6.994;2023-07-22T00:58:20;15.77;;;10.20;;
4323;SDS011;2175;51.018;6.994;2023-07-22T01:00:46;15.17;;;9.70;;
4323;SDS011;2175;51.018;6.994;2023-07-22T01:03:13;15.30;;;10.23;;
4323;SDS011;2175;51.018;6.994;2023-07-22T01:05:39;14.77;;;10.90;;
4323;SDS011;2175;51.018;6.994;2023-07-22T01:08:06;15.00;;;10.23;;
4323;SDS011;2175;51.018;6.994;2023-07-22T01:10:32;13.47;;;9.20;;
4323;SDS011;2175;51.018;6.994;2023-07-22T01:12:57;12.63;;;9.63;;
4323;SDS011;2175;51.018;6.994;2023-07-22T01:15:24;17.57;;;9.40;;
4323;SDS011;2175;51.018;6.994;2023-07-22T01:17:50;17.20;;;10.43;;
4323;SDS011;2175;51.018;6.994;2023-07-22T01:20:16;15.40;;;10.23;;
4323;SDS011;2175;51.018;6.994;2023-07-22T01:22:52;11.60;;;9.10;;
4323;SDS011;2175;51.018;6.994;2023-07-22T01:25:20;13.10;;;9.70;;
4323;SDS011;2175;51.018;6.994;2023-07-22T01:27:47;12.97;;;10.10;;
4323;SDS011;2175;51.018;6.994;2023-07-22T01:30:13;18.77;;;11.37;;
4323;SDS011;2175;51.018;6.994;2023-07-22T01:32:39;13.77;;;9.97;;
4323;SDS011;2175;51.018;6.994;2023-07-22T01:35:05;13.10;;;9.80;;
4323;SDS011;2175;51.018;6.994;2023-07-22T01:37:32;15.20;;;9.63;;
4323;SDS011;2175;51.018;6.994;2023-07-22T01:39:58;15.33;;;10.10;;
4323;SDS011;2175;51.018;6.994;2023-07-22T01:42:24;14.30;;;10.50;;
4323;SDS011;2175;51.018;6.994;2023-07-22T01:44:49;14.63;;;9.50;;
4323;SDS011;2175;51.018;6.994;2023-07-22T01:47:15;12.53;;;9.53;;
4323;SDS011;2175;51.018;6.994;2023-07-22T01:49:41;12.77;;;9.17;;
4323;SDS011;2175;51.018;6.994;2023-07-22T01:52:07;19.80;;;10.50;;
4323;SDS011;2175;51.018;6.994;2023-07-22T01:54:32;15.37;;;10.90;;
4323;SDS011;2175;51.018;6.994;2023-07-22T01:56:58;14.27;;;10.57;;
4323;SDS011;2175;51.018;6.994;2023-07-22T01:59:24;13.57;;;9.87;;
4323;SDS011;2175;51.018;6.994;2023-07-22T02:01:50;14.50;;;9.90;;
4323;SDS011;2175;51.018;6.994;2023-07-22T02:04:16;13.97;;;10.37;;
4323;SDS011;2175;51.018;6.994;2023-07-22T02:06:42;14.20;;;10.00;;
4323;SDS011;2175;51.018;6.994;2023-07-22T02:09:08;13.10;;;9.90;;
4323;SDS011;2175;51.018;6.994;2023-07-22T02:11:36;15.40;;;10.80;;
4323;SDS011;2175;51.018;6.994;2023-07-22T02:14:02;14.03;;;9.70;;
4323;SDS011;2175;51.018;6.994;2023-07-22T02:16:35;14.53;;;10.40;;
4323;SDS011;2175;51.018;6.994;2023-07-22T02:19:01;15.73;;;11.53;;
4323;SDS011;2175;51.018;6.994;2023-07-22T02:21:28;16.23;;;9.70;;
4323;SDS011;2175;51.018;6.994;2023-07-22T02:23:54;20.43;;;10.90;;
4323;SDS011;2175;51.018;6.994;2023-07-22T02:26:20;13.07;;;10.50;;
4323;SDS011;2175;51.018;6.994;2023-07-22T02:28:46;13.47;;;10.50;;
4323;SDS011;2175;51.018;6.994;2023-07-22T02:31:12;13.57;;;10.30;;
4323;SDS011;2175;51.018;6.994;2023-07-22T02:33:39;17.00;;;10.97;;
4323;SDS011;2175;51.018;6.994;2023-07-22T02:36:06;19.10;;;10.97;;
4323;SDS011;2175;51.018;6.994;2023-07-22T02:38:32;18.50;;;10.47;;
4323;SDS011;2175;51.018;6.994;2023-07-22T02:41:01;17.20;;;10.37;;
4323;SDS011;2175;51.018;6.994;2023-07-22T02:43:28;12.90;;;10.30;;
4323;SDS011;2175;51.018;6.994;2023-07-22T02:45:54;15.30;;;10.60;;
4323;SDS011;2175;51.018;6.994;2023-07-22T02:48:20;18.53;;;11.17;;
4323;SDS011;2175;51.018;6.994;2023-07-22T02:50:45;14.70;;;11.27;;
4323;SDS011;2175;51.018;6.994;2023-07-22T02:53:11;14.03;;;10.53;;
4323;SDS011;2175;51.018;6.994;2023-07-22T02:55:37;15.00;;;10.70;;
4323;SDS011;2175;51.018;6.994;2023-07-22T02:58:02;15.40;;;11.17;;
4323;SDS011;2175;51.018;6.994;2023-07-22T03:00:28;17.97;;;10.50;;
4323;SDS011;2175;51.018;6.994;2023-07-22T03:02:56;15.27;;;10.80;;
4323;SDS011;2175;51.018;6.994;2023-07-22T03:05:30;17.93;;;10.90;;
4323;SDS011;2175;51.018;6.994;2023-07-22T03:07:59;13.53;;;10.33;;
4323;SDS011;2175;51.018;6.994;2023-07-22T03:10:25;15.00;;;10.50;;
4323;SDS011;2175;51.018;6.994;2023-07-22T03:12:57;18.83;;;11.10;;
4323;SDS011;2175;51.018;6.994;2023-07-22T03:15:24;15.70;;;10.33;;
4323;SDS011;2175;51.018;6.994;2023-07-22T03:17:51;15.73;;;10.53;;
4323;SDS011;2175;51.018;6.994;2023-07-22T03:20:17;14.20;;;10.83;;
4323;SDS011;2175;51.018;6.994;2023-07-22T03:22:44;16.17;;;10.80;;
4323;SDS011;2175;51.018;6.994;2023-07-22T03:25:10;15.23;;;11.43;;
4323;SDS011;2175;51.018;6.994;2023-07-22T03:27:36;17.07;;;10.50;;
4323;SDS011;2175;51.018;6.994;2023-07-22T03:30:06;14.90;;;10.30;;
4323;SDS011;2175;51.018;6.994;2023-07-22T03:32:33;16.20;;;10.93;;
4323;SDS011;2175;51.018;6.994;2023-07-22T03:34:59;17.00;;;10.83;;
4323;SDS011;2175;51.018;6.994;2023-07-22T03:37:24;12.17;;;9.63;;
4323;SDS011;2175;51.018;6.994;2023-07-22T03:39:50;13.10;;;9.70;;
4323;SDS011;2175;51.018;6.994;2023-07-22T03:42:15;14.57;;;10.17;;
4323;SDS011;2175;51.018;6.994;2023-07-22T03:44:41;14.20;;;10.70;;
4323;SDS011;2175;51.018;6.994;2023-07-22T03:47:08;14.47;;;10.47;;
4323;SDS011;2175;51.018;6.994;2023-07-22T03:49:34;12.83;;;10.47;;
4323;SDS011;2175;51.018;6.994;2023-07-22T03:51:59;13.90;;;10.60;;
4323;SDS011;2175;51.018;6.994;2023-07-22T03:54:25;15.60;;;10.50;;
4323;SDS011;2175;51.018;6.994;2023-07-22T03:56:50;13.13;;;9.73;;
4323;SDS011;2175;51.018;6.994;2023-07-22T03:59:16;21.73;;;10.90;;
4323;SDS011;2175;51.018;6.994;2023-07-22T04:01:42;14.13;;;10.23;;
4323;SDS011;2175;51.018;6.994;2023-07-22T04:04:08;14.60;;;10.27;;
4323;SDS011;2175;51.018;6.994;2023-07-22T04:06:33;16.80;;;11.13;;
4323;SDS011;2175;51.018;6.994;2023-07-22T04:09:09;14.43;;;10.63;;
4323;SDS011;2175;51.018;6.994;2023-07-22T04:11:35;11.77;;;9.63;;
4323;SDS011;2175;51.018;6.994;2023-07-22T04:14:01;17.77;;;10.40;;
4323;SDS011;2175;51.018;6.994;2023-07-22T04:16:27;14.93;;;10.17;;
4323;SDS011;2175;51.018;6.994;2023-07-22T04:18:52;13.10;;;9.60;;
4323;SDS011;2175;51.018;6.994;2023-07-22T04:21:18;14.50;;;10.33;;
4323;SDS011;2175;51.018;6.994;2023-07-22T04:23:44;13.13;;;9.77;;
4323;SDS011;2175;51.018;6.994;2023-07-22T04:26:10;15.50;;;9.70;;
4323;SDS011;2175;51.018;6.994;2023-07-22T04:28:35;15.20;;;10.53;;
4323;SDS011;2175;51.018;6.994;2023-07-22T04:31:03;15.70;;;10.80;;
4323;SDS011;2175;51.018;6.994;2023-07-22T04:33:33;14.90;;;10.53;;
4323;SDS011;2175;51.018;6.994;2023-07-22T04:36:01;14.83;;;10.60;;
4323;SDS011;2175;51.018;6.994;2023-07-22T04:38:27;15.30;;;9.60;;
4323;SDS011;2175;51.018;6.994;2023-07-22T04:40:53;13.77;;;9.67;;
4323;SDS011;2175;51.018;6.994;2023-07-22T04:43:19;12.67;;;10.00;;
4323;SDS011;2175;51.018;6.994;2023-07-22T04:45:45;13.43;;;9.50;;
4323;SDS011;2175;51.018;6.994;2023-07-22T04:48:13;16.70;;;10.30;;
4323;SDS011;2175;51.018;6.994;2023-07-22T04:50:40;20.17;;;9.80;;
4323;SDS011;2175;51.018;6.994;2023-07-22T04:53:09;17.17;;;9.90;;
4323;SDS011;2175;51.018;6.994;2023-07-22T04:55:35;13.10;;;10.30;;
4323;SDS011;2175;51.018;6.994;2023-07-22T04:58:02;14.03;;;10.03;;
4323;SDS011;2175;51.018;6.994;2023-07-22T05:00:27;14.07;;;9.50;;
4323;SDS011;2175;51.018;6.994;2023-07-22T05:02:54;14.23;;;10.20;;
4323;SDS011;2175;51.018;6.994;2023-07-22T05:05:21;15.10;;;9.80;;
4323;SDS011;2175;51.018;6.994;2023-07-22T05:07:47;14.00;;;9.90;;
4323;SDS011;2175;51.018;6.994;2023-07-22T05:10:17;14.00;;;10.20;;
4323;SDS011;2175;51.018;6.994;2023-07-22T05:12:44;16.10;;;9.50;;
4323;SDS011;2175;51.018;6.994;2023-07-22T05:15:10;18.17;;;11.00;;
4323;SDS011;2175;51.018;6.994;2023-07-22T05:17:37;13.57;;;9.70;;
4323;SDS011;2175;51.018;6.994;2023-07-22T05:20:03;14.40;;;9.80;;
4323;SDS011;2175;51.018;6.994;2023-07-22T05:22:35;14.80;;;9.57;;
4323;SDS011;2175;51.018;6.994;2023-07-22T05:25:02;12.20;;;9.40;;
4323;SDS011;2175;51.018;6.994;2023-07-22T05:27:29;16.97;;;9.63;;
4323;SDS011;2175;51.018;6.994;2023-07-22T05:29:58;13.87;;;9.80;;
4323;SDS011;2175;51.018;6.994;2023-07-22T05:32:24;16.53;;;10.53;;
4323;SDS011;2175;51.018;6.994;2023-07-22T05:34:49;14.43;;;10.20;;
4323;SDS011;2175;51.018;6.994;2023-07-22T05:37:24;13.27;;;10.60;;
4323;SDS011;2175;51.018;6.994;2023-07-22T05:39:50;12.20;;;9.77;;
4323;SDS011;2175;51.018;6.994;2023-07-22T05:42:16;19.80;;;10.57;;
4323;SDS011;2175;51.018;6.994;2023-07-22T05:44:43;15.77;;;10.10;;
4323;SDS011;2175;51.018;6.994;2023-07-22T05:47:09;15.13;;;9.80;;
4323;SDS011;2175;51.018;6.994;2023-07-22T05:49:35;15.03;;;10.20;;
4323;SDS011;2175;51.018;6.994;2023-07-22T05:52:08;14.30;;;10.37;;
4323;SDS011;2175;51.018;6.994;2023-07-22T05:54:34;13.30;;;10.00;;
4323;SDS011;2175;51.018;6.994;2023-07-22T05:56:59;14.30;;;10.60;;
4323;SDS011;2175;51.018;6.994;2023-07-22T05:59:25;12.13;;;8.43;;
4323;SDS011;2175;51.018;6.994;2023-07-22T06:01:50;15.93;;;10.40;;
4323;SDS011;2175;51.018;6.994;2023-07-22T06:04:16;13.10;;;9.77;;
4323;SDS011;2175;51.018;6.994;2023-07-22T06:06:41;21.10;;;9.57;;
4323;SDS011;2175;51.018;6.994;2023-07-22T06:09:07;13.37;;;9.63;;
4323;SDS011;2175;51.018;6.994;2023-07-22T06:11:32;16.00;;;11.00;;
4323;SDS011;2175;51.018;6.994;2023-07-22T06:14:00;10.90;;;8.80;;
4323;SDS011;2175;51.018;6.994;2023-07-22T06:16:25;15.67;;;9.60;;
4323;SDS011;2175;51.018;6.994;2023-07-22T06:18:52;16.70;;;10.23;;
4323;SDS011;2175;51.018;6.994;2023-07-22T06:21:18;17.33;;;10.70;;
4323;SDS011;2175;51.018;6.994;2023-07-22T06:23:46;14.13;;;9.80;;
4323;SDS011;2175;51.018;6.994;2023-07-22T06:26:12;16.37;;;10.37;;
4323;SDS011;2175;51.018;6.994;2023-07-22T06:28:38;13.13;;;10.00;;
4323;SDS011;2175;51.018;6.994;2023-07-22T06:31:03;12.60;;;9.80;;
4323;SDS011;2175;51.018;6.994;2023-07-22T06:33:31;18.60;;;10.40;;
4323;SDS011;2175;51.018;6.994;2023-07-22T06:35:58;11.63;;;9.43;;
4323;SDS011;2175;51.018;6.994;2023-07-22T06:38:24;11.60;;;9.43;;
4323;SDS011;2175;51.018;6.994;2023-07-22T06:40:54;15.93;;;9.63;;
4323;SDS011;2175;51.018;6.994;2023-07-22T06:43:21;11.73;;;9.13;;
4323;SDS011;2175;51.018;6.994;2023-07-22T06:45:48;17.03;;;11.27;;
4323;SDS011;2175;51.018;6.994;2023-07-22T06:48:14;14.70;;;10.57;;
4323;SDS011;2175;51.018;6.994;2023-07-22T06:50:39;13.27;;;9.90;;
4323;SDS011;2175;51.018;6.994;2023-07-22T06:53:05;13.47;;;9.40;;
4323;SDS011;2175;51.018;6.994;2023-07-22T06:55:32;12.73;;;8.63;;
4323;SDS011;2175;51.018;6.994;2023-07-22T06:57:57;14.47;;;9.73;;
4323;SDS011;2175;51.018;6.994;2023-07-22T07:00:24;12.43;;;9.90;;
4323;SDS011;2175;51.018;6.994;2023-07-22T07:02:50;13.10;;;9.73;;
4323;SDS011;2175;51.018;6.994;2023-07-22T07:05:16;12.93;;;9.30;;
4323;SDS011;2175;51.018;6.994;2023-07-22T07:07:42;13.20;;;8.97;;
4323;SDS011;2175;51.018;6.994;2023-07-22T07:10:08;13.23;;;9.23;;
4323;SDS011;2175;51.018;6.994;2023-07-22T07:12:34;13.47;;;9.03;;
4323;SDS011;2175;51.018;6.994;2023-07-22T07:15:00;17.87;;;9.60;;
4323;SDS011;2175;51.018;6.994;2023-07-22T07:17:26;14.27;;;9.47;;
4323;SDS011;2175;51.018;6.994;2023-07-22T07:19:52;12.60;;;9.10;;
4323;SDS011;2175;51.018;6.994;2023-07-22T07:22:17;10.93;;;8.80;;
4323;SDS011;2175;51.018;6.994;2023-07-22T07:24:43;16.03;;;9.23;;
4323;SDS011;2175;51.018;6.994;2023-07-22T07:27:08;11.83;;;8.43;;
4323;SDS011;2175;51.018;6.994;2023-07-22T07:29:34;13.80;;;9.00;;
4323;SDS011;2175;51.018;6.994;2023-07-22T07:32:00;12.50;;;9.03;;
4323;SDS011;2175;51.018;6.994;2023-07-22T07:34:25;10.60;;;8.60;;
4323;SDS011;2175;51.018;6.994;2023-07-22T07:36:51;11.00;;;8.80;;
4323;SDS011;2175;51.018;6.994;2023-07-22T07:39:17;12.10;;;8.57;;
4323;SDS011;2175;51.018;6.994;2023-07-22T07:41:43;14.07;;;8.60;;
4323;SDS011;2175;51.018;6.994;2023-07-22T07:44:08;17.17;;;10.27;;
4323;SDS011;2175;51.018;6.994;2023-07-22T07:46:34;17.50;;;9.80;;
4323;SDS011;2175;51.018;6.994;2023-07-22T07:49:00;11.43;;;9.10;;
4323;SDS011;2175;51.018;6.994;2023-07-22T07:51:27;11.80;;;9.03;;
4323;SDS011;2175;51.018;6.994;2023-07-22T07:53:55;12.90;;;9.73;;
4323;SDS011;2175;51.018;6.994;2023-07-22T07:56:21;10.80;;;9.50;;
4323;SDS011;2175;51.018;6.994;2023-07-22T07:58:49;13.67;;;9.77;;
4323;SDS011;2175;51.018;6.994;2023-07-22T08:03:50;15.50;;;9.80;;
4323;SDS011;2175;51.018;6.994;2023-07-22T08:06:16;13.93;;;9.40;;
4323;SDS011;2175;51.018;6.994;2023-07-22T08:08:41;13.23;;;9.53;;
4323;SDS011;2175;51.018;6.994;2023-07-22T08:11:08;15.30;;;10.00;;
4323;SDS011;2175;51.018;6.994;2023-07-22T08:13:35;14.57;;;10.10;;
4323;SDS011;2175;51.018;6.994;2023-07-22T08:16:02;15.73;;;9.27;;
4323;SDS011;2175;51.018;6.994;2023-07-22T08:18:29;14.27;;;8.90;;
4323;SDS011;2175;51.018;6.994;2023-07-22T08:20:55;13.60;;;9.60;;
4323;SDS011;2175;51.018;6.994;2023-07-22T08:23:21;10.50;;;9.27;;
4323;SDS011;2175;51.018;6.994;2023-07-22T08:25:47;10.90;;;8.30;;
4323;SDS011;2175;51.018;6.994;2023-07-22T08:28:13;10.50;;;8.30;;
4323;SDS011;2175;51.018;6.994;2023-07-22T08:30:39;11.10;;;7.30;;
4323;SDS011;2175;51.018;6.994;2023-07-22T08:33:06;12.90;;;7.60;;
4323;SDS011;2175;51.018;6.994;2023-07-22T08:35:35;10.60;;;7.00;;
4323;SDS011;2175;51.018;6.994;2023-07-22T08:38:01;9.10;;;6.93;;
4323;SDS011;2175;51.018;6.994;2023-07-22T08:40:37;10.83;;;8.00;;
4323;SDS011;2175;51.018;6.994;2023-07-22T08:43:05;13.13;;;7.23;;
4323;SDS011;2175;51.018;6.994;2023-07-22T08:45:32;9.47;;;6.70;;
4323;SDS011;2175;51.018;6.994;2023-07-22T08:48:08;7.90;;;6.40;;
4323;SDS011;2175;51.018;6.994;2023-07-22T08:50:38;8.70;;;7.30;;
4323;SDS011;2175;51.018;6.994;2023-07-22T08:53:43;8.70;;;6.37;;
4323;SDS011;2175;51.018;6.994;2023-07-22T08:56:09;7.43;;;6.50;;
4323;SDS011;2175;51.018;6.994;2023-07-22T08:58:35;7.30;;;6.23;;
4323;SDS011;2175;51.018;6.994;2023-07-22T09:01:01;6.80;;;6.10;;
4323;SDS011;2175;51.018;6.994;2023-07-22T09:03:27;7.50;;;6.10;;
4323;SDS011;2175;51.018;6.994;2023-07-22T09:05:53;8.40;;;6.83;;
4323;SDS011;2175;51.018;6.994;2023-07-22T09:08:20;8.30;;;5.90;;
4323;SDS011;2175;51.018;6.994;2023-07-22T09:10:46;7.30;;;6.10;;
4323;SDS011;2175;51.018;6.994;2023-07-22T09:13:13;6.83;;;5.50;;
4323;SDS011;2175;51.018;6.994;2023-07-22T09:15:40;8.57;;;6.20;;
4323;SDS011;2175;51.018;6.994;2023-07-22T09:18:06;7.17;;;5.67;;
4323;SDS011;2175;51.018;6.994;2023-07-22T09:20:32;7.63;;;5.73;;
4323;SDS011;2175;51.018;6.994;2023-07-22T09:22:59;6.00;;;5.40;;
4323;SDS011;2175;51.018;6.994;2023-07-22T09:25:27;8.97;;;6.37;;
4323;SDS011;2175;51.018;6.994;2023-07-22T09:27:58;6.20;;;5.03;;
4323;SDS011;2175;51.018;6.994;2023-07-22T09:32:55;5.63;;;5.03;;
4323;SDS011;2175;51.018;6.994;2023-07-22T09:35:24;5.80;;;4.97;;
4323;SDS011;2175;51.018;6.994;2023-07-22T09:37:51;6.97;;;4.63;;
4323;SDS011;2175;51.018;6.994;2023-07-22T09:40:18;6.80;;;4.63;;
4323;SDS011;2175;51.018;6.994;2023-07-22T09:43:05;6.57;;;5.20;;
4323;SDS011;2175;51.018;6.994;2023-07-22T09:45:31;11.40;;;5.20;;
4323;SDS011;2175;51.018;6.994;2023-07-22T09:47:57;6.23;;;4.90;;
4323;SDS011;2175;51.018;6.994;2023-07-22T09:50:24;6.80;;;5.70;;
4323;SDS011;2175;51.018;6.994;2023-07-22T09:52:52;6.40;;;5.10;;
4323;SDS011;2175;51.018;6.994;2023-07-22T09:55:19;5.80;;;4.73;;
4323;SDS011;2175;51.018;6.994;2023-07-22T09:57:49;6.50;;;5.67;;
4323;SDS011;2175;51.018;6.994;2023-07-22T10:00:16;9.20;;;5.50;;
4323;SDS011;2175;51.018;6.994;2023-07-22T10:02:44;5.60;;;4.80;;
4323;SDS011;2175;51.018;6.994;2023-07-22T10:05:16;10.90;;;5.30;;
4323;SDS011;2175;51.018;6.994;2023-07-22T10:07:46;6.90;;;4.70;;
4323;SDS011;2175;51.018;6.994;2023-07-22T10:10:24;4.90;;;4.33;;
4323;SDS011;2175;51.018;6.994;2023-07-22T10:12:55;6.97;;;4.73;;
4323;SDS011;2175;51.018;6.994;2023-07-22T10:15:21;5.07;;;4.40;;
4323;SDS011;2175;51.018;6.994;2023-07-22T10:17:49;4.80;;;4.27;;
4323;SDS011;2175;51.018;6.994;2023-07-22T10:20:15;10.10;;;4.70;;
4323;SDS011;2175;51.018;6.994;2023-07-22T10:22:44;5.23;;;4.43;;
4323;SDS011;2175;51.018;6.994;2023-07-22T10:25:12;6.23;;;4.23;;
4323;SDS011;2175;51.018;6.994;2023-07-22T10:27:40;5.70;;;4.30;;
4323;SDS011;2175;51.018;6.994;2023-07-22T10:30:07;7.20;;;4.10;;
4323;SDS011;2175;51.018;6.994;2023-07-22T10:32:38;5.60;;;4.13;;
4323;SDS011;2175;51.018;6.994;2023-07-22T10:35:07;5.03;;;3.80;;
4323;SDS011;2175;51.018;6.994;2023-07-22T10:37:41;6.60;;;3.93;;
4323;SDS011;2175;51.018;6.994;2023-07-22T10:40:17;5.10;;;4.30;;
4323;SDS011;2175;51.018;6.994;2023-07-22T10:42:51;4.17;;;3.77;;
4323;SDS011;2175;51.018;6.994;2023-07-22T10:53:19;7.20;;;3.93;;
4323;SDS011;2175;51.018;6.994;2023-07-22T11:01:23;3.93;;;3.20;;
4323;SDS011;2175;51.018;6.994;2023-07-22T11:04:26;7.40;;;3.60;;
4323;SDS011;2175;51.018;6.994;2023-07-22T11:07:02;4.10;;;3.23;;
4323;SDS011;2175;51.018;6.994;2023-07-22T11:11:56;6.47;;;3.50;;
4323;SDS011;2175;51.018;6.994;2023-07-22T11:14:24;4.57;;;3.33;;
4323;SDS011;2175;51.018;6.994;2023-07-22T11:16:52;7.17;;;3.90;;
4323;SDS011;2175;51.018;6.994;2023-07-22T11:19:19;7.90;;;3.80;;
4323;SDS011;2175;51.018;6.994;2023-07-22T11:21:47;4.07;;;3.50;;
4323;SDS011;2175;51.018;6.994;2023-07-22T11:24:17;4.10;;;3.47;;
4323;SDS011;2175;51.018;6.994;2023-07-22T11:26:47;3.23;;;2.93;;
4323;SDS011;2175;51.018;6.994;2023-07-22T11:29:13;5.43;;;3.20;;
4323;SDS011;2175;51.018;6.994;2023-07-22T11:31:41;7.20;;;3.80;;
4323;SDS011;2175;51.018;6.994;2023-07-22T11:34:12;3.63;;;3.30;;
4323;SDS011;2175;51.018;6.994;2023-07-22T11:36:39;4.67;;;3.43;;
4323;SDS011;2175;51.018;6.994;2023-07-22T11:39:05;4.00;;;3.60;;
4323;SDS011;2175;51.018;6.994;2023-07-22T11:41:38;5.17;;;3.20;;
4323;SDS011;2175;51.018;6.994;2023-07-22T11:44:08;4.87;;;4.10;;
4323;SDS011;2175;51.018;6.994;2023-07-22T11:46:51;7.73;;;3.57;;
4323;SDS011;2175;51.018;6.994;2023-07-22T11:49:24;4.10;;;3.70;;
4323;SDS011;2175;51.018;6.994;2023-07-22T11:51:51;4.67;;;3.50;;
4323;SDS011;2175;51.018;6.994;2023-07-22T11:54:39;4.03;;;3.33;;
4323;SDS011;2175;51.018;6.994;2023-07-22T11:59:42;4.00;;;3.47;;
4323;SDS011;2175;51.018;6.994;2023-07-22T12:02:12;5.13;;;3.53;;
4323;SDS011;2175;51.018;6.994;2023-07-22T12:04:55;4.13;;;3.40;;
4323;SDS011;2175;51.018;6.994;2023-07-22T12:07:26;5.87;;;3.60;;
4323;SDS011;2175;51.018;6.994;2023-07-22T12:09:57;4.50;;;3.33;;
4323;SDS011;2175;51.018;6.994;2023-07-22T12:12:34;7.33;;;4.10;;
4323;SDS011;2175;51.018;6.994;2023-07-22T12:15:18;10.90;;;3.47;;
4323;SDS011;2175;51.018;6.994;2023-07-22T12:20:24;6.63;;;3.40;;
4323;SDS011;2175;51.018;6.994;2023-07-22T12:22:51;4.60;;;3.60;;
4323;SDS011;2175;51.018;6.994;2023-07-22T12:25:17;4.00;;;3.60;;
4323;SDS011;2175;51.018;6.994;2023-07-22T12:27:43;10.50;;;3.50;;
4323;SDS011;2175;51.018;6.994;2023-07-22T12:30:09;5.40;;;3.40;;
4323;SDS011;2175;51.018;6.994;2023-07-22T12:32:35;4.03;;;3.30;;
4323;SDS011;2175;51.018;6.994;2023-07-22T12:35:01;5.23;;;3.70;;
4323;SDS011;2175;51.018;6.994;2023-07-22T12:37:28;4.00;;;3.43;;
4323;SDS011;2175;51.018;6.994;2023-07-22T12:39:54;5.50;;;3.37;;
4323;SDS011;2175;51.018;6.994;2023-07-22T12:42:20;4.00;;;3.30;;
4323;SDS011;2175;51.018;6.994;2023-07-22T12:44:46;4.33;;;3.50;;
4323;SDS011;2175;51.018;6.994;2023-07-22T12:47:11;4.17;;;3.60;;
4323;SDS011;2175;51.018;6.994;2023-07-22T12:49:37;4.30;;;3.40;;
4323;SDS011;2175;51.018;6.994;2023-07-22T12:52:03;4.33;;;3.53;;
4323;SDS011;2175;51.018;6.994;2023-07-22T12:54:32;5.60;;;4.50;;
4323;SDS011;2175;51.018;6.994;2023-07-22T12:56:58;5.27;;;3.53;;
4323;SDS011;2175;51.018;6.994;2023-07-22T12:59:23;6.03;;;3.70;;
4323;SDS011;2175;51.018;6.994;2023-07-22T13:01:49;5.47;;;3.97;;
4323;SDS011;2175;51.018;6.994;2023-07-22T13:04:15;5.53;;;3.97;;
4323;SDS011;2175;51.018;6.994;2023-07-22T13:06:40;9.10;;;3.80;;
4323;SDS011;2175;51.018;6.994;2023-07-22T13:09:06;4.13;;;3.23;;
4323;SDS011;2175;51.018;6.994;2023-07-22T13:11:31;5.60;;;3.20;;
4323;SDS011;2175;51.018;6.994;2023-07-22T13:13:57;3.70;;;3.20;;
4323;SDS011;2175;51.018;6.994;2023-07-22T13:16:23;3.90;;;3.30;;
4323;SDS011;2175;51.018;6.994;2023-07-22T13:18:48;3.60;;;3.07;;
4323;SDS011;2175;51.018;6.994;2023-07-22T13:21:14;5.73;;;3.30;;
4323;SDS011;2175;51.018;6.994;2023-07-22T13:23:39;3.53;;;3.07;;
4323;SDS011;2175;51.018;6.994;2023-07-22T13:26:05;3.83;;;3.40;;
4323;SDS011;2175;51.018;6.994;2023-07-22T13:28:31;4.20;;;3.30;;
4323;SDS011;2175;51.018;6.994;2023-07-22T13:30:57;3.83;;;3.10;;
4323;SDS011;2175;51.018;6.994;2023-07-22T13:33:22;4.80;;;3.17;;
4323;SDS011;2175;51.018;6.994;2023-07-22T13:35:48;4.27;;;3.27;;
4323;SDS011;2175;51.018;6.994;2023-07-22T13:38:15;3.83;;;3.43;;
4323;SDS011;2175;51.018;6.994;2023-07-22T13:40:41;3.90;;;3.50;;
4323;SDS011;2175;51.018;6.994;2023-07-22T13:43:07;3.80;;;3.40;;
4323;SDS011;2175;51.018;6.994;2023-07-22T13:45:34;3.50;;;2.93;;
4323;SDS011;2175;51.018;6.994;2023-07-22T13:48:00;4.10;;;3.50;;
4323;SDS011;2175;51.018;6.994;2023-07-22T13:50:25;3.73;;;3.33;;
4323;SDS011;2175;51.018;6.994;2023-07-22T13:52:51;4.30;;;3.50;;
4323;SDS011;2175;51.018;6.994;2023-07-22T13:55:16;4.03;;;3.63;;
4323;SDS011;2175;51.018;6.994;2023-07-22T13:57:42;4.03;;;3.23;;
4323;SDS011;2175;51.018;6.994;2023-07-22T14:00:08;4.10;;;3.30;;
4323;SDS011;2175;51.018;6.994;2023-07-22T14:05:03;7.23;;;3.33;;
4323;SDS011;2175;51.018;6.994;2023-07-22T14:07:29;4.70;;;3.70;;
4323;SDS011;2175;51.018;6.994;2023-07-22T14:09:55;4.50;;;3.17;;
4323;SDS011;2175;51.018;6.994;2023-07-22T14:12:21;4.33;;;3.53;;
4323;SDS011;2175;51.018;6.994;2023-07-22T14:14:46;5.50;;;3.60;;
4323;SDS011;2175;51.018;6.994;2023-07-22T14:17:12;4.93;;;4.00;;
4323;SDS011;2175;51.018;6.994;2023-07-22T14:19:37;3.63;;;3.20;;
4323;SDS011;2175;51.018;6.994;2023-07-22T14:22:04;3.73;;;3.37;;
4323;SDS011;2175;51.018;6.994;2023-07-22T14:24:30;5.30;;;3.90;;
4323;SDS011;2175;51.018;6.994;2023-07-22T14:26:55;3.70;;;3.13;;
4323;SDS011;2175;51.018;6.994;2023-07-22T14:29:21;4.10;;;3.50;;
4323;SDS011;2175;51.018;6.994;2023-07-22T14:31:47;3.50;;;3.20;;
4323;SDS011;2175;51.018;6.994;2023-07-22T14:34:13;4.60;;;3.80;;
4323;SDS011;2175;51.018;6.994;2023-07-22T14:36:38;6.00;;;4.00;;
4323;SDS011;2175;51.018;6.994;2023-07-22T14:39:04;5.47;;;4.10;;
4323;SDS011;2175;51.018;6.994;2023-07-22T14:41:30;4.83;;;3.83;;
4323;SDS011;2175;51.018;6.994;2023-07-22T14:43:55;8.23;;;4.50;;
4323;SDS011;2175;51.018;6.994;2023-07-22T14:46:22;4.73;;;4.23;;
4323;SDS011;2175;51.018;6.994;2023-07-22T14:48:47;6.67;;;4.10;;
4323;SDS011;2175;51.018;6.994;2023-07-22T14:51:13;6.40;;;4.53;;
4323;SDS011;2175;51.018;6.994;2023-07-22T14:53:39;5.97;;;4.63;;
4323;SDS011;2175;51.018;6.994;2023-07-22T14:56:05;5.50;;;4.40;;
4323;SDS011;2175;51.018;6.994;2023-07-22T14:58:32;6.10;;;4.27;;
4323;SDS011;2175;51.018;6.994;2023-07-22T15:00:57;4.80;;;4.20;;
4323;SDS011;2175;51.018;6.994;2023-07-22T15:03:23;6.97;;;4.33;;
4323;SDS011;2175;51.018;6.994;2023-07-22T15:05:49;6.63;;;4.30;;
4323;SDS011;2175;51.018;6.994;2023-07-22T15:08:14;6.73;;;4.80;;
4323;SDS011;2175;51.018;6.994;2023-07-22T15:10:40;4.80;;;4.13;;
4323;SDS011;2175;51.018;6.994;2023-07-22T15:13:05;5.50;;;4.40;;
4323;SDS011;2175;51.018;6.994;2023-07-22T15:15:31;5.20;;;4.20;;
4323;SDS011;2175;51.018;6.994;2023-07-22T15:17:57;4.73;;;4.23;;
4323;SDS011;2175;51.018;6.994;2023-07-22T15:20:22;5.53;;;4.77;;
4323;SDS011;2175;51.018;6.994;2023-07-22T15:22:48;5.30;;;4.07;;
4323;SDS011;2175;51.018;6.994;2023-07-22T15:25:14;5.93;;;4.00;;
4323;SDS011;2175;51.018;6.994;2023-07-22T15:27:39;5.20;;;4.30;;
4323;SDS011;2175;51.018;6.994;2023-07-22T15:30:06;9.83;;;4.10;;
4323;SDS011;2175;51.018;6.994;2023-07-22T15:32:32;4.70;;;3.80;;
4323;SDS011;2175;51.018;6.994;2023-07-22T15:34:57;5.93;;;4.67;;
4323;SDS011;2175;51.018;6.994;2023-07-22T15:37:23;6.93;;;4.40;;
4323;SDS011;2175;51.018;6.994;2023-07-22T15:39:49;8.60;;;4.23;;
4323;SDS011;2175;51.018;6.994;2023-07-22T15:42:16;5.90;;;4.33;;
4323;SDS011;2175;51.018;6.994;2023-07-22T15:44:41;4.83;;;4.30;;
4323;SDS011;2175;51.018;6.994;2023-07-22T15:47:07;6.73;;;4.47;;
4323;SDS011;2175;51.018;6.994;2023-07-22T15:49:33;6.13;;;4.47;;
4323;SDS011;2175;51.018;6.994;2023-07-22T15:51:58;4.30;;;3.90;;
4323;SDS011;2175;51.018;6.994;2023-07-22T15:54:24;5.43;;;4.30;;
4323;SDS011;2175;51.018;6.994;2023-07-22T15:56:50;9.17;;;4.57;;